sensor_id;sensor_type;location;lat;lon;timestamp;pressure;altitude;pressure_sealevel;temperature;humidity
7018;BME280;3549;42.162;24.726;2023-02-28T00:00:49;47807.41;;;-141.97;82.37
7018;BME280;3549;42.162;24.726;2023-02-28T00:03:15;47763.19;;;-141.97;82.39
7018;BME280;3549;42.162;24.726;2023-02-28T00:05:40;47669.00;;;-141.97;82.64
7018;BME280;3549;42.162;24.726;2023-02-28T00:08:07;47580.59;;;-141.97;82.03
7018;BME280;3549;42.162;24.726;2023-02-28T00:10:32;47795.88;;;-141.97;81.18
7018;BME280;3549;42.162;24.726;2023-02-28T00:13:03;47697.84;;;-141.97;81.04
7018;BME280;3549;42.162;24.726;2023-02-28T00:15:30;47624.78;;;-141.97;80.72
7018;BME280;3549;42.162;24.726;2023-02-28T00:17:55;47795.88;;;-141.97;80.79
7018;BME280;3549;42.162;24.726;2023-02-28T00:20:21;47726.66;;;-141.97;80.62
7018;BME280;3549;42.162;24.726;2023-02-28T00:22:52;47728.59;;;-141.97;80.61
7018;BME280;3549;42.162;24.726;2023-02-28T00:25:21;47670.91;;;-141.97;80.07
7018;BME280;3549;42.162;24.726;2023-02-28T00:27:47;47743.97;;;-141.97;79.69
7018;BME280;3549;42.162;24.726;2023-02-28T00:30:16;47761.25;;;-141.97;79.90
7018;BME280;3549;42.162;24.726;2023-02-28T00:32:41;47649.78;;;-141.97;80.25
7018;BME280;3549;42.162;24.726;2023-02-28T00:35:08;47703.59;;;-141.97;81.02
7018;BME280;3549;42.162;24.726;2023-02-28T00:37:34;47642.09;;;-141.97;80.70
7018;BME280;3549;42.162;24.726;2023-02-28T00:39:59;47542.16;;;-141.97;80.56
7018;BME280;3549;42.162;24.726;2023-02-28T00:42:25;47667.06;;;-141.97;80.16
7018;BME280;3549;42.162;24.726;2023-02-28T00:44:50;47632.47;;;-141.97;79.77
7018;BME280;3549;42.162;24.726;2023-02-28T00:47:16;47788.19;;;-141.97;80.45
7018;BME280;3549;42.162;24.726;2023-02-28T00:49:41;47619.03;;;-141.97;79.83
7018;BME280;3549;42.162;24.726;2023-02-28T00:52:07;47588.28;;;-141.97;80.46
7018;BME280;3549;42.162;24.726;2023-02-28T00:54:32;47684.38;;;-141.97;80.34
7018;BME280;3549;42.162;24.726;2023-02-28T00:56:58;47574.81;;;-141.97;80.21
7018;BME280;3549;42.162;24.726;2023-02-28T00:59:23;47597.88;;;-141.97;81.26
7018;BME280;3549;42.162;24.726;2023-02-28T01:01:49;47692.06;;;-141.97;81.53
7018;BME280;3549;42.162;24.726;2023-02-28T01:04:15;47699.75;;;-141.97;81.10
7018;BME280;3549;42.162;24.726;2023-02-28T01:06:41;47607.50;;;-141.97;81.01
7018;BME280;3549;42.162;24.726;2023-02-28T01:09:07;47717.06;;;-141.97;81.13
7018;BME280;3549;42.162;24.726;2023-02-28T01:11:33;47557.53;;;-141.97;81.75
7018;BME280;3549;42.162;24.726;2023-02-28T01:13:58;47649.78;;;-141.97;81.53
7018;BME280;3549;42.162;24.726;2023-02-28T01:16:25;47576.75;;;-141.97;81.40
7018;BME280;3549;42.162;24.726;2023-02-28T01:18:50;47697.84;;;-141.97;81.34
7018;BME280;3549;42.162;24.726;2023-02-28T01:21:18;47742.03;;;-141.97;81.27
7018;BME280;3549;42.162;24.726;2023-02-28T01:23:44;47767.03;;;-141.97;81.27
7018;BME280;3549;42.162;24.726;2023-02-28T01:26:19;47572.91;;;-141.97;81.60
7018;BME280;3549;42.162;24.726;2023-02-28T01:28:44;47665.16;;;-141.97;80.74
7018;BME280;3549;42.162;24.726;2023-02-28T01:31:10;47692.06;;;-141.97;80.70
7018;BME280;3549;42.162;24.726;2023-02-28T01:33:36;47738.19;;;-141.97;80.27
7018;BME280;3549;42.162;24.726;2023-02-28T01:36:09;47722.81;;;-141.97;80.62
7018;BME280;3549;42.162;24.726;2023-02-28T01:38:35;47595.97;;;-141.97;80.30
7018;BME280;3549;42.162;24.726;2023-02-28T01:41:01;47595.97;;;-141.97;80.04
7018;BME280;3549;42.162;24.726;2023-02-28T01:43:29;47707.44;;;-141.97;79.49
7018;BME280;3549;42.162;24.726;2023-02-28T01:45:56;47601.72;;;-141.97;79.53
7018;BME280;3549;42.162;24.726;2023-02-28T01:48:26;47670.91;;;-141.97;79.61
7018;BME280;3549;42.162;24.726;2023-02-28T01:50:54;47624.78;;;-141.97;79.58
7018;BME280;3549;42.162;24.726;2023-02-28T01:53:30;47790.09;;;-141.97;79.39
7018;BME280;3549;42.162;24.726;2023-02-28T01:55:57;47805.47;;;-141.97;79.46
7018;BME280;3549;42.162;24.726;2023-02-28T01:58:23;47661.31;;;-141.97;79.33
7018;BME280;3549;42.162;24.726;2023-02-28T02:00:49;47828.53;;;-141.97;78.72
7018;BME280;3549;42.162;24.726;2023-02-28T02:03:16;47644.00;;;-141.97;77.86
7018;BME280;3549;42.162;24.726;2023-02-28T02:05:44;47743.97;;;-141.97;78.06
7018;BME280;3549;42.162;24.726;2023-02-28T02:08:25;47663.22;;;-141.97;77.11
7018;BME280;3549;42.162;24.726;2023-02-28T02:10:59;47743.97;;;-141.97;76.62
7018;BME280;3549;42.162;24.726;2023-02-28T02:16:21;47822.78;;;-141.97;76.28
7018;BME280;3549;42.162;24.726;2023-02-28T02:18:54;47684.38;;;-141.97;76.53
7018;BME280;3549;42.162;24.726;2023-02-28T02:24:09;47661.31;;;-141.97;76.48
7018;BME280;3549;42.162;24.726;2023-02-28T02:32:19;47703.59;;;-141.97;83.54
7018;BME280;3549;42.162;24.726;2023-02-28T02:35:23;47617.09;;;-141.97;84.97
7018;BME280;3549;42.162;24.726;2023-02-28T02:38:17;47697.84;;;-141.97;87.66
7018;BME280;3549;42.162;24.726;2023-02-28T02:40:47;47711.28;;;-141.97;88.86
7018;BME280;3549;42.162;24.726;2023-02-28T02:43:16;47697.84;;;-141.97;89.97
7018;BME280;3549;42.162;24.726;2023-02-28T02:45:49;47707.44;;;-141.97;89.16
7018;BME280;3549;42.162;24.726;2023-02-28T02:48:18;47703.59;;;-141.97;88.32
7018;BME280;3549;42.162;24.726;2023-02-28T02:51:07;47649.78;;;-141.97;87.75
7018;BME280;3549;42.162;24.726;2023-02-28T02:54:02;47724.75;;;-141.97;87.76
7018;BME280;3549;42.162;24.726;2023-02-28T02:56:32;47692.06;;;-141.97;88.02
7018;BME280;3549;42.162;24.726;2023-02-28T02:59:07;47763.19;;;-141.97;87.96
7018;BME280;3549;42.162;24.726;2023-02-28T03:01:35;47709.38;;;-141.97;86.71
7018;BME280;3549;42.162;24.726;2023-02-28T03:04:05;47703.59;;;-141.97;86.52
7018;BME280;3549;42.162;24.726;2023-02-28T03:06:32;47576.75;;;-141.97;86.34
7018;BME280;3549;42.162;24.726;2023-02-28T03:08:59;47665.16;;;-141.97;86.25
7018;BME280;3549;42.162;24.726;2023-02-28T03:11:25;47620.94;;;-141.97;86.31
7018;BME280;3549;42.162;24.726;2023-02-28T03:20:00;47688.22;;;-141.97;86.07
7018;BME280;3549;42.162;24.726;2023-02-28T03:28:16;47792.03;;;-141.97;88.02
7018;BME280;3549;42.162;24.726;2023-02-28T03:30:48;47734.34;;;-141.97;88.37
7018;BME280;3549;42.162;24.726;2023-02-28T03:33:21;47720.91;;;-141.97;88.93
7018;BME280;3549;42.162;24.726;2023-02-28T03:35:59;47803.56;;;-141.97;88.65
7018;BME280;3549;42.162;24.726;2023-02-28T03:38:49;47626.72;;;-141.97;89.80
7018;BME280;3549;42.162;24.726;2023-02-28T03:41:23;47692.06;;;-141.97;90.70
7018;BME280;3549;42.162;24.726;2023-02-28T03:43:56;47847.75;;;-141.97;90.41
7018;BME280;3549;42.162;24.726;2023-02-28T03:46:24;47745.88;;;-141.97;90.41
7018;BME280;3549;42.162;24.726;2023-02-28T03:48:55;47718.97;;;-141.97;91.58
7018;BME280;3549;42.162;24.726;2023-02-28T03:51:24;47580.59;;;-141.97;91.73
7018;BME280;3549;42.162;24.726;2023-02-28T03:53:54;47709.38;;;-141.97;92.16
7018;BME280;3549;42.162;24.726;2023-02-28T03:56:31;47686.31;;;-141.97;93.63
7018;BME280;3549;42.162;24.726;2023-02-28T03:59:05;47734.34;;;-141.97;93.59
7018;BME280;3549;42.162;24.726;2023-02-28T04:01:36;47707.44;;;-141.97;93.27
7018;BME280;3549;42.162;24.726;2023-02-28T04:04:03;47680.53;;;-141.97;93.14
7018;BME280;3549;42.162;24.726;2023-02-28T04:06:31;47705.53;;;-141.97;93.60
7018;BME280;3549;42.162;24.726;2023-02-28T04:08:57;47715.13;;;-141.97;93.42
7018;BME280;3549;42.162;24.726;2023-02-28T04:11:38;47713.22;;;-141.97;93.33
7018;BME280;3549;42.162;24.726;2023-02-28T04:14:06;47718.97;;;-141.97;93.64
7018;BME280;3549;42.162;24.726;2023-02-28T04:16:34;47699.75;;;-141.97;93.83
7018;BME280;3549;42.162;24.726;2023-02-28T04:19:00;47611.34;;;-141.97;93.86
7018;BME280;3549;42.162;24.726;2023-02-28T04:21:31;47699.75;;;-141.97;94.03
7018;BME280;3549;42.162;24.726;2023-02-28T04:23:57;47715.13;;;-141.97;93.71
7018;BME280;3549;42.162;24.726;2023-02-28T04:26:28;47753.56;;;-141.97;93.29
7018;BME280;3549;42.162;24.726;2023-02-28T04:28:55;47830.47;;;-141.97;93.15
7018;BME280;3549;42.162;24.726;2023-02-28T04:31:20;47590.19;;;-141.97;93.09
7018;BME280;3549;42.162;24.726;2023-02-28T04:33:46;47755.50;;;-141.97;92.79
7018;BME280;3549;42.162;24.726;2023-02-28T04:36:11;47649.78;;;-141.97;92.01
7018;BME280;3549;42.162;24.726;2023-02-28T04:38:38;47715.13;;;-141.97;91.92
7018;BME280;3549;42.162;24.726;2023-02-28T04:41:04;47699.75;;;-141.97;91.72
7018;BME280;3549;42.162;24.726;2023-02-28T04:43:30;47644.00;;;-141.97;90.92
7018;BME280;3549;42.162;24.726;2023-02-28T04:45:58;47722.81;;;-141.97;91.18
7018;BME280;3549;42.162;24.726;2023-02-28T04:48:24;47676.69;;;-141.97;91.78
7018;BME280;3549;42.162;24.726;2023-02-28T04:50:51;47703.59;;;-141.97;91.78
7018;BME280;3549;42.162;24.726;2023-02-28T04:53:17;47651.69;;;-141.97;92.47
7018;BME280;3549;42.162;24.726;2023-02-28T04:55:43;47692.06;;;-141.97;92.16
7018;BME280;3549;42.162;24.726;2023-02-28T04:58:08;47718.97;;;-141.97;91.83
7018;BME280;3549;42.162;24.726;2023-02-28T05:00:34;47788.19;;;-141.97;92.50
7018;BME280;3549;42.162;24.726;2023-02-28T05:02:59;47684.38;;;-141.97;92.80
7018;BME280;3549;42.162;24.726;2023-02-28T05:05:25;47818.94;;;-141.97;92.27
7018;BME280;3549;42.162;24.726;2023-02-28T05:07:50;47651.69;;;-141.97;91.75
7018;BME280;3549;42.162;24.726;2023-02-28T05:10:16;47768.94;;;-141.97;91.17
7018;BME280;3549;42.162;24.726;2023-02-28T05:12:41;47611.34;;;-141.97;91.00
7018;BME280;3549;42.162;24.726;2023-02-28T05:15:11;47588.28;;;-141.97;90.88
7018;BME280;3549;42.162;24.726;2023-02-28T05:17:37;47653.63;;;-141.97;90.83
7018;BME280;3549;42.162;24.726;2023-02-28T05:20:03;47818.94;;;-141.97;90.85
7018;BME280;3549;42.162;24.726;2023-02-28T05:22:30;47678.63;;;-141.97;91.37
7018;BME280;3549;42.162;24.726;2023-02-28T05:24:55;47570.97;;;-141.97;91.27
7018;BME280;3549;42.162;24.726;2023-02-28T05:27:20;47709.38;;;-141.97;90.91
7018;BME280;3549;42.162;24.726;2023-02-28T05:29:46;47713.22;;;-141.97;90.11
7018;BME280;3549;42.162;24.726;2023-02-28T05:32:12;47726.66;;;-141.97;89.46
7018;BME280;3549;42.162;24.726;2023-02-28T05:34:38;47622.88;;;-141.97;89.22
7018;BME280;3549;42.162;24.726;2023-02-28T05:37:05;47695.91;;;-141.97;87.81
7018;BME280;3549;42.162;24.726;2023-02-28T05:39:32;47615.19;;;-141.97;86.92
7018;BME280;3549;42.162;24.726;2023-02-28T05:41:58;47728.59;;;-141.97;86.71
7018;BME280;3549;42.162;24.726;2023-02-28T05:44:24;47749.72;;;-141.97;87.01
7018;BME280;3549;42.162;24.726;2023-02-28T05:46:50;47567.13;;;-141.97;87.17
7018;BME280;3549;42.162;24.726;2023-02-28T05:49:15;47795.88;;;-141.97;88.25
7018;BME280;3549;42.162;24.726;2023-02-28T05:51:40;47657.47;;;-141.97;87.96
7018;BME280;3549;42.162;24.726;2023-02-28T05:54:06;47705.53;;;-141.97;86.80
7018;BME280;3549;42.162;24.726;2023-02-28T05:56:32;47678.63;;;-141.97;86.35
7018;BME280;3549;42.162;24.726;2023-02-28T05:59:00;47663.22;;;-141.97;85.78
7018;BME280;3549;42.162;24.726;2023-02-28T06:01:35;47699.75;;;-141.97;85.97
7018;BME280;3549;42.162;24.726;2023-02-28T06:04:02;47703.59;;;-141.97;85.25
7018;BME280;3549;42.162;24.726;2023-02-28T06:06:28;47830.47;;;-141.97;83.98
7018;BME280;3549;42.162;24.726;2023-02-28T06:08:59;47730.50;;;-141.97;83.23
7018;BME280;3549;42.162;24.726;2023-02-28T06:11:26;47697.84;;;-141.97;82.73
7018;BME280;3549;42.162;24.726;2023-02-28T06:13:59;47720.91;;;-141.97;82.25
7018;BME280;3549;42.162;24.726;2023-02-28T06:16:26;47707.44;;;-141.97;82.47
7018;BME280;3549;42.162;24.726;2023-02-28T06:18:52;47663.22;;;-141.97;82.64
7018;BME280;3549;42.162;24.726;2023-02-28T06:21:20;47695.91;;;-141.97;82.95
7018;BME280;3549;42.162;24.726;2023-02-28T06:23:46;47817.00;;;-141.97;83.23
7018;BME280;3549;42.162;24.726;2023-02-28T06:26:11;47651.69;;;-141.97;83.91
7018;BME280;3549;42.162;24.726;2023-02-28T06:28:37;47592.13;;;-141.97;84.18
7018;BME280;3549;42.162;24.726;2023-02-28T06:31:10;47601.72;;;-141.97;83.54
7018;BME280;3549;42.162;24.726;2023-02-28T06:33:37;47628.63;;;-141.97;83.02
7018;BME280;3549;42.162;24.726;2023-02-28T06:36:03;47642.09;;;-141.97;81.50
7018;BME280;3549;42.162;24.726;2023-02-28T06:38:29;47640.16;;;-141.97;80.75
7018;BME280;3549;42.162;24.726;2023-02-28T06:40:56;47776.63;;;-141.97;81.20
7018;BME280;3549;42.162;24.726;2023-02-28T06:43:23;47617.09;;;-141.97;80.67
7018;BME280;3549;42.162;24.726;2023-02-28T06:45:48;47834.31;;;-141.97;80.59
7018;BME280;3549;42.162;24.726;2023-02-28T06:48:14;47786.25;;;-141.97;80.96
7018;BME280;3549;42.162;24.726;2023-02-28T06:50:39;47576.75;;;-141.97;80.13
7018;BME280;3549;42.162;24.726;2023-02-28T06:53:05;47638.25;;;-141.97;82.29
7018;BME280;3549;42.162;24.726;2023-02-28T06:55:30;47724.75;;;-141.97;81.95
7018;BME280;3549;42.162;24.726;2023-02-28T06:57:57;47726.66;;;-141.97;81.11
7018;BME280;3549;42.162;24.726;2023-02-28T07:00:22;47715.13;;;-141.97;81.25
7018;BME280;3549;42.162;24.726;2023-02-28T07:02:48;47818.94;;;-141.97;81.57
7018;BME280;3549;42.162;24.726;2023-02-28T07:05:13;47695.91;;;-141.97;82.10
7018;BME280;3549;42.162;24.726;2023-02-28T07:07:39;47588.28;;;-141.97;81.31
7018;BME280;3549;42.162;24.726;2023-02-28T07:10:12;47586.34;;;-141.97;82.93
7018;BME280;3549;42.162;24.726;2023-02-28T07:12:38;47728.59;;;-141.97;83.59
7018;BME280;3549;42.162;24.726;2023-02-28T07:15:05;47630.56;;;-141.97;81.36
7018;BME280;3549;42.162;24.726;2023-02-28T07:17:30;47667.06;;;-141.97;80.62
7018;BME280;3549;42.162;24.726;2023-02-28T07:19:56;47676.69;;;-141.97;79.69
7018;BME280;3549;42.162;24.726;2023-02-28T07:22:21;47730.50;;;-141.97;78.59
7018;BME280;3549;42.162;24.726;2023-02-28T07:24:47;47694.00;;;-141.97;77.99
7018;BME280;3549;42.162;24.726;2023-02-28T07:27:12;47788.19;;;-141.97;79.12
7018;BME280;3549;42.162;24.726;2023-02-28T07:29:51;47724.75;;;-141.97;80.45
7018;BME280;3549;42.162;24.726;2023-02-28T07:32:17;47772.78;;;-141.97;79.05
7018;BME280;3549;42.162;24.726;2023-02-28T07:34:42;47799.72;;;-141.97;78.40
7018;BME280;3549;42.162;24.726;2023-02-28T07:37:07;47603.66;;;-141.97;79.90
7018;BME280;3549;42.162;24.726;2023-02-28T07:39:33;47703.59;;;-141.97;81.56
7018;BME280;3549;42.162;24.726;2023-02-28T07:41:58;47805.47;;;-141.97;82.45
7018;BME280;3549;42.162;24.726;2023-02-28T07:44:25;47576.75;;;-141.97;82.43
7018;BME280;3549;42.162;24.726;2023-02-28T07:46:51;47720.91;;;-141.97;83.12
7018;BME280;3549;42.162;24.726;2023-02-28T07:49:16;47663.22;;;-141.97;81.51
7018;BME280;3549;42.162;24.726;2023-02-28T07:51:41;47644.00;;;-141.97;81.57
7018;BME280;3549;42.162;24.726;2023-02-28T07:54:07;47669.00;;;-141.97;82.72
7018;BME280;3549;42.162;24.726;2023-02-28T07:56:33;47694.00;;;-141.97;80.79
7018;BME280;3549;42.162;24.726;2023-02-28T07:58:58;47622.88;;;-141.97;82.64
7018;BME280;3549;42.162;24.726;2023-02-28T08:01:23;47718.97;;;-141.97;83.83
7018;BME280;3549;42.162;24.726;2023-02-28T08:03:49;47755.50;;;-141.97;83.83
7018;BME280;3549;42.162;24.726;2023-02-28T08:06:17;47734.34;;;-141.97;84.98
7018;BME280;3549;42.162;24.726;2023-02-28T08:08:43;47595.97;;;-141.97;83.07
7018;BME280;3549;42.162;24.726;2023-02-28T08:11:09;47730.50;;;-141.97;82.56
7018;BME280;3549;42.162;24.726;2023-02-28T08:13:35;47661.31;;;-141.97;82.45
7018;BME280;3549;42.162;24.726;2023-02-28T08:16:01;47780.47;;;-141.97;81.65
7018;BME280;3549;42.162;24.726;2023-02-28T08:18:27;47776.63;;;-141.97;84.03
7018;BME280;3549;42.162;24.726;2023-02-28T08:20:52;47745.88;;;-141.97;83.80
7018;BME280;3549;42.162;24.726;2023-02-28T08:23:18;47755.50;;;-141.97;85.68
7018;BME280;3549;42.162;24.726;2023-02-28T08:25:43;47803.56;;;-141.97;84.86
7018;BME280;3549;42.162;24.726;2023-02-28T08:28:09;47747.81;;;-141.97;84.35
7018;BME280;3549;42.162;24.726;2023-02-28T08:30:34;47717.06;;;-141.97;82.65
7018;BME280;3549;42.162;24.726;2023-02-28T08:33:00;47692.06;;;-141.97;81.83
7018;BME280;3549;42.162;24.726;2023-02-28T08:35:26;47720.91;;;-141.97;80.39
7018;BME280;3549;42.162;24.726;2023-02-28T08:37:52;47772.78;;;-141.97;80.84
7018;BME280;3549;42.162;24.726;2023-02-28T08:40:17;47653.63;;;-141.97;81.76
7018;BME280;3549;42.162;24.726;2023-02-28T08:42:46;47722.81;;;-141.97;80.86
7018;BME280;3549;42.162;24.726;2023-02-28T08:45:13;47761.25;;;-141.97;81.12
7018;BME280;3549;42.162;24.726;2023-02-28T08:47:39;47661.31;;;-141.97;81.57
7018;BME280;3549;42.162;24.726;2023-02-28T08:50:05;47811.25;;;-141.97;80.11
7018;BME280;3549;42.162;24.726;2023-02-28T08:52:31;47761.25;;;-141.97;79.14
7018;BME280;3549;42.162;24.726;2023-02-28T08:54:56;47676.69;;;-141.97;77.99
7018;BME280;3549;42.162;24.726;2023-02-28T08:57:22;47824.69;;;-141.97;77.47
7018;BME280;3549;42.162;24.726;2023-02-28T08:59:47;47617.09;;;-141.97;75.13
7018;BME280;3549;42.162;24.726;2023-02-28T09:02:13;47715.13;;;-141.97;74.81
7018;BME280;3549;42.162;24.726;2023-02-28T09:04:40;47707.44;;;-141.97;77.26
7018;BME280;3549;42.162;24.726;2023-02-28T09:07:05;47728.59;;;-141.97;80.59
7018;BME280;3549;42.162;24.726;2023-02-28T09:09:31;47734.34;;;-141.97;81.53
7018;BME280;3549;42.162;24.726;2023-02-28T09:11:57;47684.38;;;-141.97;79.26
7018;BME280;3549;42.162;24.726;2023-02-28T09:14:22;47686.31;;;-141.97;77.75
7018;BME280;3549;42.162;24.726;2023-02-28T09:16:48;47613.25;;;-141.97;79.10
7018;BME280;3549;42.162;24.726;2023-02-28T09:19:13;47834.31;;;-141.97;79.38
7018;BME280;3549;42.162;24.726;2023-02-28T09:21:39;47718.97;;;-141.97;79.58
7018;BME280;3549;42.162;24.726;2023-02-28T09:24:05;47670.91;;;-141.97;78.08
7018;BME280;3549;42.162;24.726;2023-02-28T09:26:31;47592.13;;;-141.97;78.23
7018;BME280;3549;42.162;24.726;2023-02-28T09:28:56;47559.44;;;-141.97;79.67
7018;BME280;3549;42.162;24.726;2023-02-28T09:31:26;47674.78;;;-141.97;82.24
7018;BME280;3549;42.162;24.726;2023-02-28T09:33:54;47703.59;;;-141.97;82.17
7018;BME280;3549;42.162;24.726;2023-02-28T09:36:22;47734.34;;;-141.97;82.12
7018;BME280;3549;42.162;24.726;2023-02-28T09:38:48;47792.03;;;-141.97;81.67
7018;BME280;3549;42.162;24.726;2023-02-28T09:41:19;47740.13;;;-141.97;81.29
7018;BME280;3549;42.162;24.726;2023-02-28T09:43:59;47703.59;;;-141.97;79.69
7018;BME280;3549;42.162;24.726;2023-02-28T09:46:47;47688.22;;;-141.97;79.59
7018;BME280;3549;42.162;24.726;2023-02-28T09:49:17;47742.03;;;-141.97;78.88
7018;BME280;3549;42.162;24.726;2023-02-28T09:54:23;47713.22;;;-141.97;79.84
7018;BME280;3549;42.162;24.726;2023-02-28T09:56:57;47684.38;;;-141.97;81.47
7018;BME280;3549;42.162;24.726;2023-02-28T09:59:32;47713.22;;;-141.97;84.14
7018;BME280;3549;42.162;24.726;2023-02-28T10:02:35;47717.06;;;-141.97;83.77
7018;BME280;3549;42.162;24.726;2023-02-28T10:05:36;47676.69;;;-141.97;81.86
7018;BME280;3549;42.162;24.726;2023-02-28T10:10:49;47684.38;;;-141.97;80.40
7018;BME280;3549;42.162;24.726;2023-02-28T10:13:29;47720.91;;;-141.97;80.79
7018;BME280;3549;42.162;24.726;2023-02-28T10:16:07;47661.31;;;-141.97;82.13
7018;BME280;3549;42.162;24.726;2023-02-28T10:18:47;47718.97;;;-141.97;80.98
7018;BME280;3549;42.162;24.726;2023-02-28T10:24:41;47688.22;;;-141.97;79.26
7018;BME280;3549;42.162;24.726;2023-02-28T10:27:14;47722.81;;;-141.97;78.92
7018;BME280;3549;42.162;24.726;2023-02-28T10:29:43;47655.53;;;-141.97;79.83
7018;BME280;3549;42.162;24.726;2023-02-28T10:32:11;47580.59;;;-141.97;79.46
7018;BME280;3549;42.162;24.726;2023-02-28T10:34:39;47663.22;;;-141.97;78.79
7018;BME280;3549;42.162;24.726;2023-02-28T10:37:05;47722.81;;;-141.97;78.77
7018;BME280;3549;42.162;24.726;2023-02-28T10:39:42;47742.03;;;-141.97;77.80
7018;BME280;3549;42.162;24.726;2023-02-28T10:42:28;47743.97;;;-141.97;77.57
7018;BME280;3549;42.162;24.726;2023-02-28T10:45:12;47815.09;;;-141.97;76.80
7018;BME280;3549;42.162;24.726;2023-02-28T10:48:01;47661.31;;;-141.97;76.67
7018;BME280;3549;42.162;24.726;2023-02-28T10:53:15;47699.75;;;-141.97;78.51
7018;BME280;3549;42.162;24.726;2023-02-28T10:55:41;47686.31;;;-141.97;79.75
7018;BME280;3549;42.162;24.726;2023-02-28T10:58:29;47765.09;;;-141.97;81.37
7018;BME280;3549;42.162;24.726;2023-02-28T11:00:54;47676.69;;;-141.97;80.88
7018;BME280;3549;42.162;24.726;2023-02-28T11:03:34;47669.00;;;-141.97;80.48
7018;BME280;3549;42.162;24.726;2023-02-28T11:08:55;47722.81;;;-141.97;81.54
7018;BME280;3549;42.162;24.726;2023-02-28T11:11:24;47607.50;;;-141.97;81.66
7018;BME280;3549;42.162;24.726;2023-02-28T11:13:53;47653.63;;;-141.97;83.76
7018;BME280;3549;42.162;24.726;2023-02-28T11:16:20;47711.28;;;-141.97;84.87
7018;BME280;3549;42.162;24.726;2023-02-28T11:18:49;47724.75;;;-141.97;83.94
7018;BME280;3549;42.162;24.726;2023-02-28T11:21:22;47730.50;;;-141.97;82.29
7018;BME280;3549;42.162;24.726;2023-02-28T11:23:51;47803.56;;;-141.97;82.55
7018;BME280;3549;42.162;24.726;2023-02-28T11:26:35;47630.56;;;-141.97;84.49
7018;BME280;3549;42.162;24.726;2023-02-28T11:29:09;47603.66;;;-141.97;85.72
7018;BME280;3549;42.162;24.726;2023-02-28T11:31:36;47672.84;;;-141.97;86.38
7018;BME280;3549;42.162;24.726;2023-02-28T11:34:01;47838.16;;;-141.97;89.50
7018;BME280;3549;42.162;24.726;2023-02-28T11:36:30;47795.88;;;-141.97;93.38
7018;BME280;3549;42.162;24.726;2023-02-28T11:38:59;47711.28;;;-141.97;94.87
7018;BME280;3549;42.162;24.726;2023-02-28T11:44:42;47759.34;;;-141.97;96.49
7018;BME280;3549;42.162;24.726;2023-02-28T11:47:19;47699.75;;;-141.97;98.69
7018;BME280;3549;42.162;24.726;2023-02-28T11:52:56;47730.50;;;-141.97;100.00
7018;BME280;3549;42.162;24.726;2023-02-28T11:55:35;47747.81;;;-141.97;100.00
7018;BME280;3549;42.162;24.726;2023-02-28T12:04:01;47699.75;;;-141.97;100.00
7018;BME280;3549;42.162;24.726;2023-02-28T12:11:56;47699.75;;;-141.97;100.00
7018;BME280;3549;42.162;24.726;2023-02-28T12:20:02;47749.72;;;-141.97;100.00
7018;BME280;3549;42.162;24.726;2023-02-28T12:22:54;47745.88;;;-141.97;100.00
7018;BME280;3549;42.162;24.726;2023-02-28T12:28:02;47720.91;;;-141.97;100.00
7018;BME280;3549;42.162;24.726;2023-02-28T12:30:32;47713.22;;;-141.97;100.00
7018;BME280;3549;42.162;24.726;2023-02-28T12:33:09;47699.75;;;-141.97;100.00
7018;BME280;3549;42.162;24.726;2023-02-28T12:35:58;47747.81;;;-141.97;100.00
7018;BME280;3549;42.162;24.726;2023-02-28T12:38:34;47711.28;;;-141.97;100.00
7018;BME280;3549;42.162;24.726;2023-02-28T12:41:05;47622.88;;;-141.97;100.00
7018;BME280;3549;42.162;24.726;2023-02-28T12:43:45;47793.94;;;-141.97;100.00
7018;BME280;3549;42.162;24.726;2023-02-28T12:48:44;47751.66;;;-141.97;99.78
7018;BME280;3549;42.162;24.726;2023-02-28T12:51:12;47718.97;;;-141.97;99.32
7018;BME280;3549;42.162;24.726;2023-02-28T12:56:38;47747.81;;;-141.97;99.51
7018;BME280;3549;42.162;24.726;2023-02-28T12:59:25;47734.34;;;-141.97;99.64
7018;BME280;3549;42.162;24.726;2023-02-28T13:05:10;47734.34;;;-141.97;98.40
7018;BME280;3549;42.162;24.726;2023-02-28T13:10:41;47753.56;;;-141.97;99.56
7018;BME280;3549;42.162;24.726;2023-02-28T13:13:14;47732.44;;;-141.97;99.81
7018;BME280;3549;42.162;24.726;2023-02-28T13:16:08;47795.88;;;-141.97;100.00
7018;BME280;3549;42.162;24.726;2023-02-28T13:18:37;47749.72;;;-141.97;100.00
7018;BME280;3549;42.162;24.726;2023-02-28T13:21:07;47703.59;;;-141.97;100.00
7018;BME280;3549;42.162;24.726;2023-02-28T13:23:41;47749.72;;;-141.97;100.00
7018;BME280;3549;42.162;24.726;2023-02-28T13:26:29;47784.34;;;-141.97;100.00
7018;BME280;3549;42.162;24.726;2023-02-28T13:40:06;47824.69;;;-141.97;100.00
7018;BME280;3549;42.162;24.726;2023-02-28T13:47:39;47692.06;;;-141.97;100.00
7018;BME280;3549;42.162;24.726;2023-02-28T13:50:29;47768.94;;;-141.97;100.00
7018;BME280;3549;42.162;24.726;2023-02-28T14:06:32;47749.72;;;-141.97;100.00
7018;BME280;3549;42.162;24.726;2023-02-28T14:11:43;47767.03;;;-141.97;100.00
7018;BME280;3549;42.162;24.726;2023-02-28T14:17:05;47647.84;;;-141.97;100.00
7018;BME280;3549;42.162;24.726;2023-02-28T14:19:32;47745.88;;;-141.97;100.00
7018;BME280;3549;42.162;24.726;2023-02-28T14:33:22;47878.53;;;-141.97;100.00
7018;BME280;3549;42.162;24.726;2023-02-28T14:36:18;47726.66;;;-141.97;100.00
7018;BME280;3549;42.162;24.726;2023-02-28T14:38:56;47738.19;;;-141.97;100.00
7018;BME280;3549;42.162;24.726;2023-02-28T14:41:23;47761.25;;;-141.97;100.00
7018;BME280;3549;42.162;24.726;2023-02-28T14:43:55;47730.50;;;-141.97;100.00
7018;BME280;3549;42.162;24.726;2023-02-28T14:46:22;47732.44;;;-141.97;100.00
7018;BME280;3549;42.162;24.726;2023-02-28T14:48:50;47732.44;;;-141.97;100.00
7018;BME280;3549;42.162;24.726;2023-02-28T14:51:23;47732.44;;;-141.97;100.00
7018;BME280;3549;42.162;24.726;2023-02-28T14:53:52;47655.53;;;-141.97;100.00
7018;BME280;3549;42.162;24.726;2023-02-28T14:56:23;47726.66;;;-141.97;100.00
7018;BME280;3549;42.162;24.726;2023-02-28T14:58:55;47745.88;;;-141.97;100.00
7018;BME280;3549;42.162;24.726;2023-02-28T15:01:22;47763.19;;;-141.97;100.00